createdAt,value
2023-01-05T00:02:10.850Z,8.39
2023-01-05T00:04:40.887Z,8.35
2023-01-05T00:07:10.968Z,8.15
2023-01-05T00:09:41.024Z,8.21
2023-01-05T00:12:31.890Z,8.27
2023-01-05T00:15:20.566Z,8.33
2023-01-05T00:18:07.359Z,8.28
2023-01-05T00:20:56.125Z,8.35
2023-01-05T00:23:26.209Z,8.02
2023-01-05T00:25:56.233Z,7.98
2023-01-05T00:28:25.465Z,8.06
2023-01-05T00:30:53.468Z,7.86
2023-01-05T00:33:21.921Z,7.70
2023-01-05T00:35:50.906Z,7.79
2023-01-05T00:38:17.959Z,7.80
2023-01-05T00:40:46.391Z,7.71
2023-01-05T00:43:14.768Z,7.78
2023-01-05T00:45:44.367Z,7.73
2023-01-05T00:48:11.608Z,7.73
2023-01-05T00:50:40.005Z,8.16
2023-01-05T00:53:08.488Z,8.39
2023-01-05T00:55:36.857Z,8.35
2023-01-05T00:58:05.346Z,8.21
2023-01-05T01:00:33.897Z,8.31
2023-01-05T01:03:02.251Z,8.44
2023-01-05T01:05:30.544Z,8.38
2023-01-05T01:07:58.961Z,8.47
2023-01-05T01:10:27.454Z,8.24
2023-01-05T01:12:55.844Z,8.29
2023-01-05T01:15:24.216Z,8.45
2023-01-05T01:17:52.707Z,8.27
2023-01-05T01:20:21.155Z,8.15
2023-01-05T01:22:49.648Z,8.20
2023-01-05T01:25:18.061Z,8.25
2023-01-05T01:27:46.358Z,8.23
2023-01-05T01:30:14.917Z,8.26
2023-01-05T01:32:43.227Z,8.25
2023-01-05T01:35:12.055Z,8.16
2023-01-05T01:37:40.939Z,8.25
2023-01-05T01:40:10.199Z,8.12
2023-01-05T01:42:40.235Z,8.05
2023-01-05T01:45:26.230Z,8.24
2023-01-05T01:48:01.459Z,8.25
2023-01-05T01:50:52.737Z,8.31
2023-01-05T01:53:44.411Z,8.41
2023-01-05T01:56:22.255Z,8.44
2023-01-05T01:58:52.769Z,8.47
2023-01-05T02:01:23.148Z,8.54
2023-01-05T02:03:56.212Z,8.48
2023-01-05T02:06:26.287Z,8.46
2023-01-05T02:08:56.912Z,8.53
2023-01-05T02:11:59.978Z,8.60
2023-01-05T02:14:51.474Z,8.57
2023-01-05T02:18:05.580Z,8.67
2023-01-05T02:21:02.340Z,8.67
2023-01-05T02:24:02.285Z,8.54
2023-01-05T02:26:59.714Z,8.47
2023-01-05T02:30:23.631Z,8.30
2023-01-05T02:33:20.859Z,8.34
2023-01-05T02:36:56.331Z,8.34
2023-01-05T02:39:59.877Z,8.44
2023-01-05T02:42:39.165Z,8.50
2023-01-05T02:45:11.052Z,8.50
2023-01-05T02:47:46.130Z,8.51
2023-01-05T02:51:01.211Z,8.41
2023-01-05T02:53:42.852Z,8.43
2023-01-05T02:56:31.696Z,8.43
2023-01-05T02:59:44.167Z,8.46
2023-01-05T03:02:31.386Z,8.58
2023-01-05T03:05:26.068Z,8.35
2023-01-05T03:08:07.060Z,8.21
2023-01-05T03:11:22.516Z,8.35
2023-01-05T03:14:05.209Z,8.31
2023-01-05T03:16:38.727Z,8.31
2023-01-05T03:19:36.298Z,8.20
2023-01-05T03:22:39.009Z,8.23
2023-01-05T03:25:34.382Z,8.24
2023-01-05T03:28:36.007Z,8.47
2023-01-05T03:32:04.740Z,8.44
2023-01-05T03:35:21.265Z,8.45
2023-01-05T03:38:44.009Z,8.48
2023-01-05T03:41:20.590Z,8.53
2023-01-05T03:43:51.960Z,8.46
2023-01-05T03:46:23.124Z,8.58
2023-01-05T03:48:51.837Z,8.72
2023-01-05T03:51:19.647Z,8.67
2023-01-05T03:53:49.741Z,8.59
2023-01-05T03:56:19.302Z,8.63
2023-01-05T03:58:49.097Z,8.51
2023-01-05T04:01:18.921Z,8.42
2023-01-05T04:03:48.827Z,8.59
2023-01-05T04:06:18.459Z,8.52
2023-01-05T04:08:48.475Z,8.45
2023-01-05T04:11:23.244Z,8.55
2023-01-05T04:13:51.777Z,8.62
2023-01-05T04:16:21.259Z,8.71
2023-01-05T04:18:50.168Z,8.65
2023-01-05T04:21:17.737Z,8.73
2023-01-05T04:23:46.275Z,8.62
2023-01-05T04:26:14.614Z,8.55
2023-01-05T04:28:43.016Z,8.52
2023-01-05T04:31:11.487Z,8.52
2023-01-05T04:33:40.250Z,8.55
2023-01-05T04:36:08.846Z,8.56
2023-01-05T04:38:36.828Z,8.55
2023-01-05T04:41:05.284Z,8.56
2023-01-05T04:43:33.511Z,8.35
2023-01-05T04:46:02.243Z,8.18
2023-01-05T04:48:31.974Z,8.14
2023-01-05T04:51:02.040Z,8.04
2023-01-05T04:53:30.333Z,8.06
2023-01-05T04:55:58.949Z,7.95
2023-01-05T04:58:27.266Z,7.97
2023-01-05T05:00:55.532Z,7.97
2023-01-05T05:03:26.856Z,7.92
2023-01-05T05:05:58.472Z,7.87
2023-01-05T05:08:28.588Z,7.95
2023-01-05T05:10:59.882Z,7.85
2023-01-05T05:13:28.365Z,7.85
2023-01-05T05:15:58.240Z,7.73
2023-01-05T05:18:28.414Z,7.74
2023-01-05T05:20:58.031Z,7.93
2023-01-05T05:23:27.862Z,8.03
2023-01-05T05:25:57.937Z,8.03
2023-01-05T05:28:28.597Z,8.05
2023-01-05T05:30:58.210Z,7.92
2023-01-05T05:33:27.603Z,8.00
2023-01-05T05:35:57.313Z,8.07
2023-01-05T05:38:27.123Z,8.25
2023-01-05T05:40:56.902Z,8.20
2023-01-05T05:43:26.699Z,8.25
2023-01-05T05:45:56.547Z,8.24
2023-01-05T05:48:26.283Z,8.10
2023-01-05T05:50:56.216Z,8.20
2023-01-05T05:53:25.991Z,8.30
2023-01-05T05:55:55.822Z,8.39
2023-01-05T05:58:26.066Z,8.16
2023-01-05T06:00:59.861Z,8.21
2023-01-05T06:03:29.222Z,8.22
2023-01-05T06:05:59.031Z,8.15
2023-01-05T06:08:30.204Z,8.19
2023-01-05T06:10:59.506Z,8.15
2023-01-05T06:13:29.285Z,8.19
2023-01-05T06:15:59.001Z,8.29
2023-01-05T06:18:28.699Z,8.17
2023-01-05T06:21:01.775Z,8.19
2023-01-05T06:23:31.933Z,8.06
2023-01-05T06:25:59.113Z,7.98
2023-01-05T06:28:29.071Z,7.89
2023-01-05T06:30:58.743Z,7.99
2023-01-05T06:33:28.662Z,7.91
2023-01-05T06:36:01.479Z,8.02
2023-01-05T06:38:30.887Z,7.88
2023-01-05T06:40:59.524Z,7.92
2023-01-05T06:43:27.056Z,7.84
2023-01-05T06:45:55.372Z,7.75
2023-01-05T06:48:23.736Z,7.63
2023-01-05T06:50:52.190Z,7.64
2023-01-05T06:53:20.587Z,7.70
2023-01-05T06:55:49.058Z,7.52
2023-01-05T06:58:17.430Z,7.63
2023-01-05T07:00:45.880Z,7.57
2023-01-05T07:03:14.859Z,7.53
2023-01-05T07:05:42.827Z,7.50
2023-01-05T07:08:11.168Z,7.55
2023-01-05T07:10:39.570Z,7.54
2023-01-05T07:13:07.984Z,7.53
2023-01-05T07:15:36.491Z,7.51
2023-01-05T07:18:04.973Z,7.58
2023-01-05T07:20:33.311Z,7.59
2023-01-05T07:23:01.676Z,7.59
2023-01-05T07:25:31.751Z,7.62
2023-01-05T07:28:01.730Z,7.61
2023-01-05T07:30:31.458Z,7.71
2023-01-05T07:33:01.432Z,7.72
2023-01-05T07:35:32.791Z,7.82
2023-01-05T07:38:01.047Z,7.83
2023-01-05T07:40:30.854Z,7.80
2023-01-05T07:43:01.192Z,7.73
2023-01-05T07:45:31.239Z,7.69
2023-01-05T07:48:02.791Z,7.45
2023-01-05T07:50:32.294Z,7.55
2023-01-05T07:53:01.837Z,7.55
2023-01-05T07:55:30.236Z,7.63
2023-01-05T07:57:58.596Z,7.52
2023-01-05T08:00:27.103Z,7.46
2023-01-05T08:02:56.454Z,7.41
2023-01-05T08:05:23.940Z,7.47
2023-01-05T08:07:52.315Z,7.46
2023-01-05T08:10:30.148Z,7.51
2023-01-05T08:13:24.515Z,7.53
2023-01-05T08:15:56.490Z,7.61
2023-01-05T08:18:24.470Z,7.59
2023-01-05T08:21:04.378Z,7.51
2023-01-05T08:23:36.530Z,7.58
2023-01-05T08:26:23.676Z,7.53
2023-01-05T08:28:53.873Z,7.64
2023-01-05T08:31:29.906Z,7.78
2023-01-05T08:34:02.511Z,7.66
2023-01-05T08:36:33.443Z,7.68
2023-01-05T08:39:04.454Z,7.80
2023-01-05T08:41:38.876Z,7.78
2023-01-05T08:44:14.376Z,7.73
2023-01-05T08:46:44.460Z,7.71
2023-01-05T08:49:14.498Z,7.69
2023-01-05T08:51:42.664Z,7.80
2023-01-05T08:54:10.137Z,7.68
2023-01-05T08:56:40.109Z,7.78
2023-01-05T08:59:13.910Z,7.77
2023-01-05T09:01:44.040Z,7.60
2023-01-05T09:04:13.976Z,7.67
2023-01-05T09:06:43.887Z,7.73
2023-01-05T09:09:13.720Z,7.73
2023-01-05T09:11:43.512Z,7.73
2023-01-05T09:14:15.240Z,7.69
2023-01-05T09:19:35.066Z,7.88
2023-01-05T09:22:03.931Z,7.83
2023-01-05T09:24:31.585Z,7.90
2023-01-05T09:27:00.100Z,7.86
2023-01-05T09:29:28.411Z,8.02
2023-01-05T09:31:56.941Z,8.13
2023-01-05T09:34:25.349Z,8.04
2023-01-05T09:36:53.721Z,8.06
2023-01-05T09:39:22.162Z,8.10
2023-01-05T09:42:00.682Z,8.04
2023-01-05T09:44:37.837Z,8.07
2023-01-05T09:47:46.869Z,8.00
2023-01-05T09:50:30.935Z,8.11
2023-01-05T09:53:01.547Z,8.21
2023-01-05T09:55:35.336Z,8.17
2023-01-05T09:58:18.001Z,8.31
2023-01-05T10:01:17.586Z,8.24
2023-01-05T10:04:03.996Z,8.13
2023-01-05T10:06:46.132Z,8.06
2023-01-05T10:09:28.383Z,7.81
2023-01-05T10:12:55.048Z,7.88
2023-01-05T10:15:29.688Z,7.99
2023-01-05T10:18:10.946Z,8.07
2023-01-05T10:21:24.633Z,8.05
2023-01-05T10:24:13.668Z,8.01
2023-01-05T10:27:24.636Z,8.09
2023-01-05T10:30:44.045Z,8.12
2023-01-05T10:33:53.142Z,8.16
2023-01-05T10:37:08.915Z,8.05
2023-01-05T10:40:20.375Z,8.09
2023-01-05T10:43:49.927Z,8.09
2023-01-05T10:46:42.626Z,8.01
2023-01-05T10:49:26.679Z,8.07
2023-01-05T10:52:01.224Z,8.03
2023-01-05T10:54:58.342Z,7.91
2023-01-05T10:57:39.163Z,8.06
2023-01-05T11:00:37.850Z,8.09
2023-01-05T11:03:19.138Z,8.18
2023-01-05T11:05:49.566Z,8.04
2023-01-05T11:08:31.162Z,8.09
2023-01-05T11:11:08.207Z,8.19
2023-01-05T11:13:48.156Z,8.13
2023-01-05T11:16:26.927Z,8.07
2023-01-05T11:19:08.063Z,8.14
2023-01-05T11:21:47.401Z,8.08
2023-01-05T11:24:37.778Z,8.09
2023-01-05T11:27:19.995Z,8.12
2023-01-05T11:30:24.638Z,8.13
2023-01-05T11:32:54.823Z,8.08
2023-01-05T11:35:38.203Z,8.10
2023-01-05T11:38:26.885Z,8.11
2023-01-05T11:41:01.144Z,8.26
2023-01-05T11:43:34.071Z,8.23
2023-01-05T11:46:05.984Z,8.10
2023-01-05T11:48:36.733Z,8.18
2023-01-05T11:51:06.847Z,8.31
2023-01-05T11:53:40.668Z,8.31
2023-01-05T11:56:25.024Z,8.20
2023-01-05T11:58:58.061Z,8.19
2023-01-05T12:01:35.223Z,8.32
2023-01-05T12:05:01.362Z,8.28
2023-01-05T12:08:13.545Z,8.35
2023-01-05T12:11:16.567Z,8.25
2023-01-05T12:14:19.603Z,8.23
2023-01-05T12:16:56.957Z,8.28
2023-01-05T12:19:53.271Z,8.25
2023-01-05T12:22:57.433Z,8.14
2023-01-05T12:26:19.755Z,8.22
2023-01-05T12:34:11.229Z,8.10
2023-01-05T12:37:25.465Z,8.10
2023-01-05T12:40:27.517Z,8.13
2023-01-05T12:43:16.062Z,8.16
2023-01-05T12:46:40.091Z,8.19
2023-01-05T12:49:38.587Z,8.08
2023-01-05T12:52:33.158Z,8.14
2023-01-05T12:55:23.708Z,8.21
2023-01-05T12:58:13.429Z,8.27
2023-01-05T13:00:46.546Z,8.28
2023-01-05T13:03:33.496Z,8.10
2023-01-05T13:06:16.898Z,8.19
2023-01-05T13:09:12.027Z,8.14
2023-01-05T13:11:56.607Z,7.99
2023-01-05T13:14:36.932Z,8.11
2023-01-05T13:17:34.944Z,8.04
2023-01-05T13:20:31.215Z,8.06
2023-01-05T13:23:14.708Z,7.82
2023-01-05T13:26:04.267Z,7.78
2023-01-05T13:28:35.364Z,7.87
2023-01-05T13:31:32.533Z,7.90
2023-01-05T13:35:07.226Z,7.91
2023-01-05T13:38:23.788Z,7.75
2023-01-05T13:41:37.585Z,7.79
2023-01-05T13:44:42.613Z,7.75
2023-01-05T13:47:56.476Z,7.78
2023-01-05T13:51:33.254Z,7.75
2023-01-05T13:55:02.051Z,7.74
2023-01-05T13:57:44.123Z,7.77
2023-01-05T14:00:35.077Z,7.77
2023-01-05T14:03:13.737Z,7.76
2023-01-05T14:05:54.548Z,7.71
2023-01-05T14:08:38.250Z,7.74
2023-01-05T14:11:26.686Z,7.69
2023-01-05T14:14:23.639Z,7.70
2023-01-05T14:16:55.660Z,7.80
2023-01-05T14:19:37.500Z,7.77
2023-01-05T14:22:19.400Z,7.73
2023-01-05T14:24:48.930Z,7.73
2023-01-05T14:27:24.160Z,7.66
2023-01-05T14:29:54.043Z,7.70
2023-01-05T14:32:41.165Z,7.70
2023-01-05T14:35:31.749Z,7.59
2023-01-05T14:38:13.734Z,7.64
2023-01-05T14:40:56.432Z,7.60
2023-01-05T14:43:37.666Z,7.62
2023-01-05T14:46:15.548Z,7.55
2023-01-05T14:49:07.475Z,7.52
2023-01-05T14:51:39.583Z,7.53
2023-01-05T14:54:11.384Z,7.61
2023-01-05T14:57:20.643Z,7.48
2023-01-05T15:00:11.343Z,7.49
2023-01-05T15:03:21.421Z,7.46
2023-01-05T15:06:18.260Z,7.49
2023-01-05T15:09:33.154Z,7.40
2023-01-05T15:13:04.107Z,7.33
2023-01-05T15:16:07.038Z,7.38
2023-01-05T15:19:42.934Z,7.23
2023-01-05T15:23:16.753Z,7.16
2023-01-05T15:26:23.418Z,7.09
2023-01-05T15:29:30.601Z,7.11
2023-01-05T15:32:37.530Z,7.02
2023-01-05T15:35:52.033Z,6.90
2023-01-05T15:38:30.248Z,6.79
2023-01-05T15:41:10.892Z,6.89
2023-01-05T15:43:43.651Z,6.78
2023-01-05T15:46:23.655Z,6.70
2023-01-05T15:48:55.150Z,6.75
2023-01-05T15:51:30.452Z,6.65
2023-01-05T15:54:05.570Z,6.48
2023-01-05T15:56:41.315Z,6.44
2023-01-05T15:59:40.763Z,6.44
2023-01-05T16:02:24.004Z,6.52
2023-01-05T16:05:14.745Z,6.61
2023-01-05T16:08:03.500Z,6.63
2023-01-05T16:10:51.432Z,6.61
2023-01-05T16:13:59.322Z,6.43
2023-01-05T16:16:59.033Z,6.31
2023-01-05T16:20:09.565Z,6.27
2023-01-05T16:23:08.947Z,6.29
2023-01-05T16:26:11.076Z,6.33
2023-01-05T16:28:41.324Z,6.22
2023-01-05T16:31:33.907Z,6.13
2023-01-05T16:34:20.699Z,6.30
2023-01-05T16:37:17.816Z,6.24
2023-01-05T16:39:47.902Z,6.18
2023-01-05T16:42:40.729Z,6.14
2023-01-05T16:45:27.460Z,6.06
2023-01-05T16:47:57.809Z,6.05
2023-01-05T16:50:30.715Z,6.13
2023-01-05T16:53:15.690Z,6.09
2023-01-05T16:55:43.375Z,6.16
2023-01-05T16:58:29.908Z,6.10
2023-01-05T17:01:33.308Z,6.01
2023-01-05T17:04:17.407Z,5.95
2023-01-05T17:06:52.225Z,5.94
2023-01-05T17:09:31.959Z,5.98
2023-01-05T17:12:02.203Z,6.03
2023-01-05T17:14:32.657Z,6.10
2023-01-05T17:17:02.611Z,5.99
2023-01-05T17:19:36.500Z,6.11
2023-01-05T17:22:11.393Z,5.92
2023-01-05T17:24:42.724Z,5.94
2023-01-05T17:30:01.109Z,5.66
2023-01-05T17:32:31.076Z,5.71
2023-01-05T17:35:01.084Z,5.74
2023-01-05T17:37:31.091Z,5.66
2023-01-05T17:40:01.211Z,5.60
2023-01-05T17:42:43.363Z,5.56
2023-01-05T17:45:23.837Z,5.48
2023-01-05T17:47:54.768Z,5.64
2023-01-05T17:53:22.665Z,5.46
2023-01-05T17:55:52.693Z,5.38
2023-01-05T17:58:24.465Z,5.43
2023-01-05T18:00:56.623Z,5.40
2023-01-05T18:03:27.030Z,5.48
2023-01-05T18:06:01.666Z,5.54
2023-01-05T18:08:31.682Z,5.53
2023-01-05T18:11:07.388Z,5.66
2023-01-05T18:13:37.528Z,5.59
2023-01-05T18:16:10.769Z,5.57
2023-01-05T18:18:40.945Z,5.47
2023-01-05T18:21:11.182Z,5.59
2023-01-05T18:23:41.242Z,5.55
2023-01-05T18:26:11.371Z,5.58
2023-01-05T18:28:41.439Z,5.65
2023-01-05T18:31:16.561Z,5.58
2023-01-05T18:33:46.586Z,5.44
2023-01-05T18:36:16.645Z,5.49
2023-01-05T18:38:46.877Z,5.57
2023-01-05T18:41:24.291Z,5.58
2023-01-05T18:43:54.329Z,5.48
2023-01-05T18:46:24.612Z,5.48
2023-01-05T18:48:54.654Z,5.47
2023-01-05T18:51:24.802Z,5.55
2023-01-05T18:53:54.916Z,5.59
2023-01-05T18:56:25.015Z,5.48
2023-01-05T18:58:55.618Z,5.48
2023-01-05T19:01:26.548Z,5.42
2023-01-05T19:03:56.936Z,5.30
2023-01-05T19:06:27.193Z,5.43
2023-01-05T19:08:57.321Z,5.43
2023-01-05T19:11:28.554Z,5.30
2023-01-05T19:14:02.525Z,5.20
2023-01-05T19:16:36.152Z,5.25
2023-01-05T19:19:11.128Z,5.42
2023-01-05T19:21:45.256Z,5.34
2023-01-05T19:24:27.819Z,5.29
2023-01-05T19:26:57.968Z,5.25
2023-01-05T19:29:28.327Z,5.20
2023-01-05T19:31:58.343Z,5.37
2023-01-05T19:34:28.568Z,5.27
2023-01-05T19:36:58.640Z,5.19
2023-01-05T19:39:28.803Z,5.17
2023-01-05T19:41:59.060Z,5.19
2023-01-05T19:44:29.265Z,5.18
2023-01-05T19:46:59.329Z,5.13
2023-01-05T19:49:29.523Z,5.05
2023-01-05T19:51:59.548Z,4.96
2023-01-05T19:54:29.823Z,4.84
2023-01-05T19:56:59.960Z,4.79
2023-01-05T19:59:36.386Z,4.74
2023-01-05T20:02:07.278Z,4.50
2023-01-05T20:04:37.388Z,4.36
2023-01-05T20:07:10.236Z,4.18
2023-01-05T20:09:41.026Z,4.14
2023-01-05T20:12:15.503Z,4.17
2023-01-05T20:14:45.607Z,4.18
2023-01-05T20:17:14.508Z,4.22
2023-01-05T20:19:42.513Z,4.23
2023-01-05T20:22:14.129Z,4.25
2023-01-05T20:24:43.964Z,4.28
2023-01-05T20:27:18.734Z,4.33
2023-01-05T20:29:47.796Z,4.32
2023-01-05T20:32:24.093Z,4.30
2023-01-05T20:35:00.175Z,4.31
2023-01-05T20:37:32.738Z,4.33
2023-01-05T20:40:04.583Z,4.34
2023-01-05T20:42:35.974Z,4.43
2023-01-05T20:45:06.673Z,4.40
2023-01-05T20:47:46.543Z,4.42
2023-01-05T20:50:17.190Z,4.41
2023-01-05T20:52:47.085Z,4.42
2023-01-05T20:55:18.904Z,4.44
2023-01-05T20:57:50.924Z,4.42
2023-01-05T21:00:19.524Z,4.45
2023-01-05T21:02:49.662Z,4.37
2023-01-05T21:05:20.330Z,4.33
2023-01-05T21:07:49.660Z,4.37
2023-01-05T21:10:19.831Z,4.31
2023-01-05T21:12:48.064Z,4.31
2023-01-05T21:15:16.417Z,4.27
2023-01-05T21:17:44.844Z,4.20
2023-01-05T21:20:13.399Z,4.06
2023-01-05T21:22:41.681Z,3.92
2023-01-05T21:25:11.580Z,3.78
2023-01-05T21:27:44.191Z,3.72
2023-01-05T21:30:14.597Z,3.59
2023-01-05T21:32:44.653Z,3.45
2023-01-05T21:35:14.726Z,3.35
2023-01-05T21:37:44.826Z,3.25
2023-01-05T21:40:14.959Z,3.21
2023-01-05T21:42:50.084Z,3.13
2023-01-05T21:45:20.430Z,3.09
2023-01-05T21:47:57.558Z,3.05
2023-01-05T21:50:46.525Z,2.99
2023-01-05T21:53:35.773Z,2.95
2023-01-05T21:56:26.578Z,2.90
2023-01-05T21:58:59.548Z,2.87
2023-01-05T22:01:30.519Z,2.82
2023-01-05T22:04:00.588Z,2.79
2023-01-05T22:06:30.830Z,2.73
2023-01-05T22:09:01.052Z,2.67
2023-01-05T22:11:29.308Z,2.59
2023-01-05T22:13:57.745Z,2.51
2023-01-05T22:16:26.693Z,2.46
2023-01-05T22:18:55.465Z,2.39
2023-01-05T22:21:23.162Z,2.27
2023-01-05T22:23:51.826Z,2.20
2023-01-05T22:26:21.291Z,2.15
2023-01-05T22:28:51.703Z,2.10
2023-01-05T22:31:30.342Z,2.06
2023-01-05T22:34:01.461Z,1.96
2023-01-05T22:36:31.499Z,1.89
2023-01-05T22:39:01.726Z,1.85
2023-01-05T22:41:31.927Z,1.80
2023-01-05T22:44:02.682Z,1.75
2023-01-05T22:46:34.349Z,1.68
2023-01-05T22:49:03.597Z,1.65
2023-01-05T22:51:38.265Z,1.57
2023-01-05T22:54:07.833Z,1.51
2023-01-05T22:56:37.695Z,1.47
2023-01-05T22:59:08.805Z,1.40
2023-01-05T23:01:44.886Z,1.36
2023-01-05T23:04:19.045Z,1.31
2023-01-05T23:06:46.436Z,1.26
2023-01-05T23:09:18.254Z,1.23
2023-01-05T23:11:48.529Z,1.18
2023-01-05T23:14:19.257Z,1.10
2023-01-05T23:16:49.386Z,1.07
2023-01-05T23:19:21.449Z,1.05
2023-01-05T23:21:49.605Z,1.00
2023-01-05T23:24:19.387Z,0.95
2023-01-05T23:26:49.403Z,0.82
2023-01-05T23:29:19.105Z,0.76
2023-01-05T23:31:49.750Z,0.70
2023-01-05T23:34:19.192Z,0.72
2023-01-05T23:36:48.904Z,0.72
2023-01-05T23:39:19.111Z,0.69
2023-01-05T23:41:48.875Z,0.72
2023-01-05T23:44:18.821Z,0.78
2023-01-05T23:46:48.570Z,0.84
2023-01-05T23:49:18.329Z,0.90
2023-01-05T23:51:48.155Z,0.98
2023-01-05T23:54:18.106Z,1.03
2023-01-05T23:56:47.885Z,1.09
2023-01-05T23:59:17.828Z,1.13
